sensor_id;sensor_type;location;lat;lon;timestamp;pressure;altitude;pressure_sealevel;temperature;humidity
43838;BME280;65998;46.256;7.534;2023-05-09T00:00:03;87292.31;;;17.75;53.89
43838;BME280;65998;46.256;7.534;2023-05-09T00:02:48;87297.19;;;17.74;53.90
43838;BME280;65998;46.256;7.534;2023-05-09T00:05:14;87287.50;;;17.73;53.88
43838;BME280;65998;46.256;7.534;2023-05-09T00:07:40;87297.25;;;17.72;53.96
43838;BME280;65998;46.256;7.534;2023-05-09T00:10:06;87288.19;;;17.74;53.94
43838;BME280;65998;46.256;7.534;2023-05-09T00:12:32;87284.72;;;17.73;53.91
43838;BME280;65998;46.256;7.534;2023-05-09T00:14:58;87286.13;;;17.72;53.89
43838;BME280;65998;46.256;7.534;2023-05-09T00:17:24;87284.72;;;17.73;53.83
43838;BME280;65998;46.256;7.534;2023-05-09T00:19:50;87280.59;;;17.72;53.86
43838;BME280;65998;46.256;7.534;2023-05-09T00:22:17;87284.03;;;17.73;53.58
43838;BME280;65998;46.256;7.534;2023-05-09T00:24:43;87282.00;;;17.71;53.62
43838;BME280;65998;46.256;7.534;2023-05-09T00:27:09;87281.31;;;17.71;53.42
43838;BME280;65998;46.256;7.534;2023-05-09T00:29:35;87274.34;;;17.72;53.34
43838;BME280;65998;46.256;7.534;2023-05-09T00:32:01;87264.66;;;17.71;53.42
43838;BME280;65998;46.256;7.534;2023-05-09T00:34:27;87267.44;;;17.71;53.43
43838;BME280;65998;46.256;7.534;2023-05-09T00:36:52;87267.44;;;17.71;53.29
43838;BME280;65998;46.256;7.534;2023-05-09T00:39:18;87258.41;;;17.70;53.36
43838;BME280;65998;46.256;7.534;2023-05-09T00:41:44;87268.16;;;17.69;53.23
43838;BME280;65998;46.256;7.534;2023-05-09T00:44:10;87261.19;;;17.70;53.25
43838;BME280;65998;46.256;7.534;2023-05-09T00:46:36;87259.09;;;17.71;53.17
43838;BME280;65998;46.256;7.534;2023-05-09T00:49:03;87256.31;;;17.71;53.20
43838;BME280;65998;46.256;7.534;2023-05-09T00:51:28;87254.94;;;17.70;53.29
43838;BME280;65998;46.256;7.534;2023-05-09T00:53:55;87256.31;;;17.71;53.07
43838;BME280;65998;46.256;7.534;2023-05-09T00:56:21;87246.56;;;17.72;53.06
43838;BME280;65998;46.256;7.534;2023-05-09T00:58:47;87250.00;;;17.72;53.02
43838;BME280;65998;46.256;7.534;2023-05-09T01:01:13;87247.22;;;17.72;52.94
43838;BME280;65998;46.256;7.534;2023-05-09T01:03:40;87247.91;;;17.73;52.98
43838;BME280;65998;46.256;7.534;2023-05-09T01:06:28;87246.50;;;17.74;53.01
43838;BME280;65998;46.256;7.534;2023-05-09T01:09:31;87238.97;;;17.70;52.98
43838;BME280;65998;46.256;7.534;2023-05-09T01:14:37;87238.16;;;17.74;52.81
43838;BME280;65998;46.256;7.534;2023-05-09T01:20:22;87245.81;;;17.73;52.89
43838;BME280;65998;46.256;7.534;2023-05-09T01:22:59;87234.00;;;17.73;52.97
43838;BME280;65998;46.256;7.534;2023-05-09T01:26:01;87230.56;;;17.72;52.76
43838;BME280;65998;46.256;7.534;2023-05-09T01:28:35;87238.88;;;17.72;52.87
43838;BME280;65998;46.256;7.534;2023-05-09T01:31:09;87235.50;;;17.70;52.87
43838;BME280;65998;46.256;7.534;2023-05-09T01:33:37;87238.97;;;17.70;52.93
43838;BME280;65998;46.256;7.534;2023-05-09T01:36:11;87223.63;;;17.71;52.85
43838;BME280;65998;46.256;7.534;2023-05-09T01:38:39;87227.78;;;17.72;52.60
43838;BME280;65998;46.256;7.534;2023-05-09T01:41:08;87227.09;;;17.72;52.83
43838;BME280;65998;46.256;7.534;2023-05-09T01:43:37;87230.56;;;17.72;52.71
43838;BME280;65998;46.256;7.534;2023-05-09T01:46:05;87221.53;;;17.72;52.88
43838;BME280;65998;46.256;7.534;2023-05-09T01:48:34;87215.31;;;17.71;53.03
43838;BME280;65998;46.256;7.534;2023-05-09T01:51:01;87220.84;;;17.71;52.70
43838;BME280;65998;46.256;7.534;2023-05-09T01:53:28;87226.41;;;17.71;52.89
43838;BME280;65998;46.256;7.534;2023-05-09T01:55:55;87222.28;;;17.70;52.78
43838;BME280;65998;46.256;7.534;2023-05-09T01:58:24;87219.50;;;17.70;52.85
43838;BME280;65998;46.256;7.534;2023-05-09T02:00:50;87218.81;;;17.70;52.86
43838;BME280;65998;46.256;7.534;2023-05-09T02:03:17;87211.16;;;17.70;52.71
43838;BME280;65998;46.256;7.534;2023-05-09T02:05:43;87207.03;;;17.69;52.83
43838;BME280;65998;46.256;7.534;2023-05-09T02:08:13;87209.06;;;17.71;52.79
43838;BME280;65998;46.256;7.534;2023-05-09T02:10:40;87207.72;;;17.70;52.85
43838;BME280;65998;46.256;7.534;2023-05-09T02:13:06;87210.53;;;17.68;52.81
43838;BME280;65998;46.256;7.534;2023-05-09T02:15:32;87213.25;;;17.70;52.71
43838;BME280;65998;46.256;7.534;2023-05-09T02:17:59;87210.53;;;17.68;52.92
43838;BME280;65998;46.256;7.534;2023-05-09T02:20:25;87212.63;;;17.67;52.85
43838;BME280;65998;46.256;7.534;2023-05-09T02:22:50;87214.72;;;17.67;52.83
43838;BME280;65998;46.256;7.534;2023-05-09T02:25:16;87209.16;;;17.67;52.61
43838;BME280;65998;46.256;7.534;2023-05-09T02:27:44;87207.75;;;17.68;52.85
43838;BME280;65998;46.256;7.534;2023-05-09T02:30:14;87212.59;;;17.69;52.87
43838;BME280;65998;46.256;7.534;2023-05-09T02:32:42;87211.19;;;17.68;52.78
43838;BME280;65998;46.256;7.534;2023-05-09T02:35:10;87208.50;;;17.66;52.65
43838;BME280;65998;46.256;7.534;2023-05-09T02:37:37;87214.03;;;17.66;52.89
43838;BME280;65998;46.256;7.534;2023-05-09T02:40:06;87204.28;;;17.67;52.85
43838;BME280;65998;46.256;7.534;2023-05-09T02:42:31;87207.09;;;17.65;52.96
43838;BME280;65998;46.256;7.534;2023-05-09T02:44:57;87196.00;;;17.65;52.74
43838;BME280;65998;46.256;7.534;2023-05-09T02:47:23;87200.19;;;17.64;52.80
43838;BME280;65998;46.256;7.534;2023-05-09T02:49:49;87195.31;;;17.65;52.91
43838;BME280;65998;46.256;7.534;2023-05-09T02:52:15;87195.31;;;17.65;52.81
43838;BME280;65998;46.256;7.534;2023-05-09T02:54:41;87193.94;;;17.64;52.97
43838;BME280;65998;46.256;7.534;2023-05-09T02:57:07;87193.94;;;17.64;52.81
43838;BME280;65998;46.256;7.534;2023-05-09T02:59:33;87195.31;;;17.65;52.81
43838;BME280;65998;46.256;7.534;2023-05-09T03:01:58;87192.53;;;17.65;52.98
43838;BME280;65998;46.256;7.534;2023-05-09T03:04:24;87189.06;;;17.64;52.94
43838;BME280;65998;46.256;7.534;2023-05-09T03:06:50;87190.44;;;17.65;52.75
43838;BME280;65998;46.256;7.534;2023-05-09T03:09:16;87183.50;;;17.64;52.79
43838;BME280;65998;46.256;7.534;2023-05-09T03:11:42;87186.97;;;17.65;52.83
43838;BME280;65998;46.256;7.534;2023-05-09T03:14:08;87186.28;;;17.64;52.86
43838;BME280;65998;46.256;7.534;2023-05-09T03:16:34;87187.03;;;17.63;52.82
43838;BME280;65998;46.256;7.534;2023-05-09T03:19:00;87189.81;;;17.63;52.82
43838;BME280;65998;46.256;7.534;2023-05-09T03:21:25;87181.47;;;17.63;52.77
43838;BME280;65998;46.256;7.534;2023-05-09T03:23:51;87188.47;;;17.62;52.84
43838;BME280;65998;46.256;7.534;2023-05-09T03:26:17;87184.25;;;17.63;52.74
43838;BME280;65998;46.256;7.534;2023-05-09T03:28:43;87180.13;;;17.62;52.88
43838;BME280;65998;46.256;7.534;2023-05-09T03:31:08;87192.66;;;17.61;52.71
43838;BME280;65998;46.256;7.534;2023-05-09T03:33:34;87187.09;;;17.61;52.87
43838;BME280;65998;46.256;7.534;2023-05-09T03:36:00;87185.00;;;17.61;52.89
43838;BME280;65998;46.256;7.534;2023-05-09T03:38:26;87185.00;;;17.61;52.81
43838;BME280;65998;46.256;7.534;2023-05-09T03:40:54;87187.03;;;17.63;52.80
43838;BME280;65998;46.256;7.534;2023-05-09T03:43:20;87185.75;;;17.60;52.96
43838;BME280;65998;46.256;7.534;2023-05-09T03:45:46;87180.19;;;17.60;52.96
43838;BME280;65998;46.256;7.534;2023-05-09T03:48:12;87175.31;;;17.60;53.08
43838;BME280;65998;46.256;7.534;2023-05-09T03:50:38;87174.63;;;17.60;52.98
43838;BME280;65998;46.256;7.534;2023-05-09T03:53:04;87173.28;;;17.59;52.88
43838;BME280;65998;46.256;7.534;2023-05-09T03:55:29;87167.72;;;17.59;53.00
43838;BME280;65998;46.256;7.534;2023-05-09T03:57:55;87167.03;;;17.58;52.81
43838;BME280;65998;46.256;7.534;2023-05-09T04:00:21;87169.13;;;17.58;52.88
43838;BME280;65998;46.256;7.534;2023-05-09T04:02:47;87181.63;;;17.59;52.85
43838;BME280;65998;46.256;7.534;2023-05-09T04:05:14;87172.59;;;17.58;52.85
43838;BME280;65998;46.256;7.534;2023-05-09T04:07:40;87172.59;;;17.58;52.79
43838;BME280;65998;46.256;7.534;2023-05-09T04:10:07;87176.06;;;17.59;52.86
43838;BME280;65998;46.256;7.534;2023-05-09T04:12:33;87162.22;;;17.56;52.83
43838;BME280;65998;46.256;7.534;2023-05-09T04:14:58;87161.56;;;17.56;52.88
43838;BME280;65998;46.256;7.534;2023-05-09T04:17:24;87163.66;;;17.55;52.88
43838;BME280;65998;46.256;7.534;2023-05-09T04:19:50;87161.56;;;17.56;52.76
43838;BME280;65998;46.256;7.534;2023-05-09T04:22:17;87167.09;;;17.56;52.73
43838;BME280;65998;46.256;7.534;2023-05-09T04:24:42;87168.53;;;17.55;52.72
43838;BME280;65998;46.256;7.534;2023-05-09T04:27:08;87169.94;;;17.54;52.72
43838;BME280;65998;46.256;7.534;2023-05-09T04:29:34;87171.31;;;17.55;52.58
43838;BME280;65998;46.256;7.534;2023-05-09T04:32:01;87162.97;;;17.55;52.57
43838;BME280;65998;46.256;7.534;2023-05-09T04:34:27;87169.88;;;17.56;52.76
43838;BME280;65998;46.256;7.534;2023-05-09T04:36:53;87170.63;;;17.54;52.76
43838;BME280;65998;46.256;7.534;2023-05-09T04:39:19;87170.63;;;17.54;52.87
43838;BME280;65998;46.256;7.534;2023-05-09T04:41:45;87163.72;;;17.53;52.66
43838;BME280;65998;46.256;7.534;2023-05-09T04:44:11;87170.63;;;17.54;52.76
43838;BME280;65998;46.256;7.534;2023-05-09T04:46:37;87172.06;;;17.53;52.94
43838;BME280;65998;46.256;7.534;2023-05-09T04:49:02;87169.94;;;17.54;52.82
43838;BME280;65998;46.256;7.534;2023-05-09T04:51:28;87169.28;;;17.53;52.98
43838;BME280;65998;46.256;7.534;2023-05-09T04:53:54;87167.91;;;17.52;52.78
43838;BME280;65998;46.256;7.534;2023-05-09T04:56:20;87163.03;;;17.53;52.84
43838;BME280;65998;46.256;7.534;2023-05-09T04:58:45;87168.59;;;17.53;52.80
43838;BME280;65998;46.256;7.534;2023-05-09T05:01:11;87164.47;;;17.52;52.78
43838;BME280;65998;46.256;7.534;2023-05-09T05:03:37;87172.13;;;17.51;52.78
43838;BME280;65998;46.256;7.534;2023-05-09T05:06:03;87163.78;;;17.51;52.88
43838;BME280;65998;46.256;7.534;2023-05-09T05:08:29;87168.66;;;17.51;52.82
43838;BME280;65998;46.256;7.534;2023-05-09T05:10:55;87165.13;;;17.52;52.81
43838;BME280;65998;46.256;7.534;2023-05-09T05:13:21;87162.41;;;17.50;52.85
43838;BME280;65998;46.256;7.534;2023-05-09T05:15:47;87167.31;;;17.50;52.85
43838;BME280;65998;46.256;7.534;2023-05-09T05:18:12;87160.31;;;17.51;52.74
43838;BME280;65998;46.256;7.534;2023-05-09T05:20:41;87162.34;;;17.52;52.78
43838;BME280;65998;46.256;7.534;2023-05-09T05:23:08;87172.13;;;17.51;52.65
43838;BME280;65998;46.256;7.534;2023-05-09T05:25:34;87165.19;;;17.50;52.82
43838;BME280;65998;46.256;7.534;2023-05-09T05:27:59;87169.41;;;17.49;52.71
43838;BME280;65998;46.256;7.534;2023-05-09T05:30:25;87170.06;;;17.50;52.64
43838;BME280;65998;46.256;7.534;2023-05-09T05:32:51;87169.34;;;17.51;52.79
43838;BME280;65998;46.256;7.534;2023-05-09T05:35:17;87163.78;;;17.51;52.69
43838;BME280;65998;46.256;7.534;2023-05-09T05:37:43;87166.56;;;17.51;52.57
43838;BME280;65998;46.256;7.534;2023-05-09T05:40:09;87163.78;;;17.51;52.75
43838;BME280;65998;46.256;7.534;2023-05-09T05:42:35;87158.22;;;17.51;52.65
43838;BME280;65998;46.256;7.534;2023-05-09T05:45:01;87159.56;;;17.52;52.67
43838;BME280;65998;46.256;7.534;2023-05-09T05:47:27;87155.44;;;17.51;52.58
43838;BME280;65998;46.256;7.534;2023-05-09T05:49:53;87157.47;;;17.53;52.69
43838;BME280;65998;46.256;7.534;2023-05-09T05:52:18;87149.16;;;17.53;52.61
43838;BME280;65998;46.256;7.534;2023-05-09T05:54:44;87161.63;;;17.54;52.59
43838;BME280;65998;46.256;7.534;2023-05-09T05:57:10;87159.56;;;17.52;52.64
43838;BME280;65998;46.256;7.534;2023-05-09T05:59:36;87154.03;;;17.52;52.71
43838;BME280;65998;46.256;7.534;2023-05-09T06:02:01;87149.16;;;17.53;52.84
43838;BME280;65998;46.256;7.534;2023-05-09T06:04:27;87148.47;;;17.52;52.72
43838;BME280;65998;46.256;7.534;2023-05-09T06:06:53;87147.78;;;17.52;52.86
43838;BME280;65998;46.256;7.534;2023-05-09T06:09:19;87147.78;;;17.52;52.82
43838;BME280;65998;46.256;7.534;2023-05-09T06:11:45;87143.59;;;17.53;52.95
43838;BME280;65998;46.256;7.534;2023-05-09T06:14:11;87140.13;;;17.52;52.89
43838;BME280;65998;46.256;7.534;2023-05-09T06:16:36;87137.34;;;17.52;52.84
43838;BME280;65998;46.256;7.534;2023-05-09T06:19:02;87138.03;;;17.53;52.78
43838;BME280;65998;46.256;7.534;2023-05-09T06:21:28;87128.28;;;17.54;52.82
43838;BME280;65998;46.256;7.534;2023-05-09T06:23:54;87135.94;;;17.53;52.82
43838;BME280;65998;46.256;7.534;2023-05-09T06:26:20;87126.91;;;17.53;52.95
43838;BME280;65998;46.256;7.534;2023-05-09T06:28:45;87130.38;;;17.53;52.97
43838;BME280;65998;46.256;7.534;2023-05-09T06:31:11;87126.16;;;17.54;53.01
43838;BME280;65998;46.256;7.534;2023-05-09T06:33:37;87125.50;;;17.54;52.87
43838;BME280;65998;46.256;7.534;2023-05-09T06:36:03;87121.97;;;17.55;53.02
43838;BME280;65998;46.256;7.534;2023-05-09T06:38:29;87123.31;;;17.56;53.00
43838;BME280;65998;46.256;7.534;2023-05-09T06:40:55;87111.53;;;17.56;52.90
43838;BME280;65998;46.256;7.534;2023-05-09T06:43:20;87108.09;;;17.55;53.07
43838;BME280;65998;46.256;7.534;2023-05-09T06:45:46;87114.31;;;17.56;53.05
43838;BME280;65998;46.256;7.534;2023-05-09T06:48:12;87104.63;;;17.55;53.04
43838;BME280;65998;46.256;7.534;2023-05-09T06:50:38;87101.84;;;17.55;53.16
43838;BME280;65998;46.256;7.534;2023-05-09T06:53:04;87101.84;;;17.55;53.24
43838;BME280;65998;46.256;7.534;2023-05-09T06:55:29;87105.97;;;17.56;53.15
43838;BME280;65998;46.256;7.534;2023-05-09T06:57:55;87096.28;;;17.55;53.12
43838;BME280;65998;46.256;7.534;2023-05-09T07:00:21;87097.66;;;17.56;53.19
43838;BME280;65998;46.256;7.534;2023-05-09T07:02:47;87094.19;;;17.55;53.01
43838;BME280;65998;46.256;7.534;2023-05-09T07:05:13;87093.44;;;17.57;53.01
43838;BME280;65998;46.256;7.534;2023-05-09T07:07:39;87087.88;;;17.57;53.00
43838;BME280;65998;46.256;7.534;2023-05-09T07:10:05;87086.47;;;17.58;53.01
43838;BME280;65998;46.256;7.534;2023-05-09T07:12:32;87085.09;;;17.57;53.13
43838;BME280;65998;46.256;7.534;2023-05-09T07:14:58;87079.47;;;17.59;52.98
43838;BME280;65998;46.256;7.534;2023-05-09T07:17:24;87078.13;;;17.58;53.04
43838;BME280;65998;46.256;7.534;2023-05-09T07:19:50;87076.03;;;17.59;53.12
43838;BME280;65998;46.256;7.534;2023-05-09T07:22:16;87071.81;;;17.60;53.11
43838;BME280;65998;46.256;7.534;2023-05-09T07:24:42;87074.59;;;17.60;53.06
43838;BME280;65998;46.256;7.534;2023-05-09T07:27:08;87063.50;;;17.60;53.22
43838;BME280;65998;46.256;7.534;2023-05-09T07:29:34;87063.41;;;17.62;53.18
43838;BME280;65998;46.256;7.534;2023-05-09T07:32:00;87062.00;;;17.63;53.04
43838;BME280;65998;46.256;7.534;2023-05-09T07:34:26;87059.22;;;17.63;53.10
43838;BME280;65998;46.256;7.534;2023-05-09T07:36:52;87054.34;;;17.63;53.00
43838;BME280;65998;46.256;7.534;2023-05-09T07:39:17;87052.91;;;17.64;53.01
43838;BME280;65998;46.256;7.534;2023-05-09T07:41:43;87050.88;;;17.63;52.82
43838;BME280;65998;46.256;7.534;2023-05-09T07:44:09;87051.56;;;17.63;52.94
43838;BME280;65998;46.256;7.534;2023-05-09T07:46:35;87048.09;;;17.63;52.91
43838;BME280;65998;46.256;7.534;2023-05-09T07:49:01;87043.97;;;17.62;52.82
43838;BME280;65998;46.256;7.534;2023-05-09T07:51:27;87037.00;;;17.63;52.88
43838;BME280;65998;46.256;7.534;2023-05-09T07:53:53;87041.13;;;17.64;52.76
43838;BME280;65998;46.256;7.534;2023-05-09T07:56:19;87032.09;;;17.63;52.74
43838;BME280;65998;46.256;7.534;2023-05-09T07:58:44;87031.44;;;17.63;52.76
43838;BME280;65998;46.256;7.534;2023-05-09T08:01:10;87030.00;;;17.64;52.55
43838;BME280;65998;46.256;7.534;2023-05-09T08:03:36;87026.47;;;17.65;52.59
43838;BME280;65998;46.256;7.534;2023-05-09T08:06:02;87020.25;;;17.65;52.59
43838;BME280;65998;46.256;7.534;2023-05-09T08:08:27;87021.59;;;17.66;52.46
43838;BME280;65998;46.256;7.534;2023-05-09T08:10:55;87016.00;;;17.68;52.17
43838;BME280;65998;46.256;7.534;2023-05-09T08:13:20;87014.66;;;17.67;52.11
43838;BME280;65998;46.256;7.534;2023-05-09T08:15:47;87006.97;;;17.67;51.99
43838;BME280;65998;46.256;7.534;2023-05-09T08:18:13;87002.09;;;17.68;52.00
43838;BME280;65998;46.256;7.534;2023-05-09T08:20:39;86998.59;;;17.69;51.79
43838;BME280;65998;46.256;7.534;2023-05-09T08:23:05;86999.97;;;17.70;51.65
43838;BME280;65998;46.256;7.534;2023-05-09T08:25:31;86997.19;;;17.70;51.65
43838;BME280;65998;46.256;7.534;2023-05-09T08:27:57;86996.44;;;17.72;51.41
43838;BME280;65998;46.256;7.534;2023-05-09T08:30:23;86992.28;;;17.71;51.45
43838;BME280;65998;46.256;7.534;2023-05-09T08:32:49;86988.09;;;17.72;51.35
43838;BME280;65998;46.256;7.534;2023-05-09T08:35:15;86989.44;;;17.73;51.25
43838;BME280;65998;46.256;7.534;2023-05-09T08:37:41;86990.13;;;17.73;51.13
43838;BME280;65998;46.256;7.534;2023-05-09T08:40:07;86981.09;;;17.73;51.22
43838;BME280;65998;46.256;7.534;2023-05-09T08:42:35;86978.25;;;17.75;50.98
43838;BME280;65998;46.256;7.534;2023-05-09T08:45:12;86977.50;;;17.76;51.09
43838;BME280;65998;46.256;7.534;2023-05-09T08:47:38;86979.69;;;17.74;51.06
43838;BME280;65998;46.256;7.534;2023-05-09T08:50:05;86977.56;;;17.74;51.23
43838;BME280;65998;46.256;7.534;2023-05-09T08:52:32;86979.69;;;17.74;51.22
43838;BME280;65998;46.256;7.534;2023-05-09T08:55:01;86976.81;;;17.76;51.26
43838;BME280;65998;46.256;7.534;2023-05-09T08:57:27;86972.78;;;17.73;51.35
43838;BME280;65998;46.256;7.534;2023-05-09T08:59:54;86965.78;;;17.74;51.41
43838;BME280;65998;46.256;7.534;2023-05-09T09:02:20;86972.78;;;17.73;51.39
43838;BME280;65998;46.256;7.534;2023-05-09T09:04:46;86967.88;;;17.73;51.29
43838;BME280;65998;46.256;7.534;2023-05-09T09:07:14;86962.94;;;17.76;51.40
43838;BME280;65998;46.256;7.534;2023-05-09T09:09:45;86960.84;;;17.76;51.33
43838;BME280;65998;46.256;7.534;2023-05-09T09:12:11;86956.03;;;17.75;51.30
43838;BME280;65998;46.256;7.534;2023-05-09T09:14:45;86951.13;;;17.75;51.33
43838;BME280;65998;46.256;7.534;2023-05-09T09:17:16;86946.84;;;17.78;51.20
43838;BME280;65998;46.256;7.534;2023-05-09T09:19:44;86942.81;;;17.75;51.27
43838;BME280;65998;46.256;7.534;2023-05-09T09:22:15;86932.34;;;17.76;51.13
43838;BME280;65998;46.256;7.534;2023-05-09T09:24:43;86931.00;;;17.75;51.11
43838;BME280;65998;46.256;7.534;2023-05-09T09:27:09;86927.56;;;17.74;51.09
43838;BME280;65998;46.256;7.534;2023-05-09T09:29:35;86924.09;;;17.74;51.21
43838;BME280;65998;46.256;7.534;2023-05-09T09:32:02;86921.25;;;17.76;51.12
43838;BME280;65998;46.256;7.534;2023-05-09T09:34:28;86918.53;;;17.74;51.07
43838;BME280;65998;46.256;7.534;2023-05-09T09:36:54;86917.88;;;17.73;51.11
43838;BME280;65998;46.256;7.534;2023-05-09T09:39:20;86917.88;;;17.73;51.11
43838;BME280;65998;46.256;7.534;2023-05-09T09:41:45;86908.84;;;17.73;51.03
43838;BME280;65998;46.256;7.534;2023-05-09T09:46:49;86907.34;;;17.76;50.81
43838;BME280;65998;46.256;7.534;2023-05-09T09:49:23;86910.19;;;17.74;50.84
43838;BME280;65998;46.256;7.534;2023-05-09T09:51:54;86900.44;;;17.75;50.89
43838;BME280;65998;46.256;7.534;2023-05-09T09:54:21;86901.88;;;17.74;50.81
43838;BME280;65998;46.256;7.534;2023-05-09T09:56:48;86901.19;;;17.73;50.84
43838;BME280;65998;46.256;7.534;2023-05-09T09:59:16;86896.31;;;17.74;50.74
43838;BME280;65998;46.256;7.534;2023-05-09T10:02:06;86886.53;;;17.75;50.68
43838;BME280;65998;46.256;7.534;2023-05-09T10:04:34;86886.63;;;17.73;50.64
43838;BME280;65998;46.256;7.534;2023-05-09T10:07:02;86881.72;;;17.73;50.67
43838;BME280;65998;46.256;7.534;2023-05-09T10:09:28;86879.03;;;17.71;50.81
43838;BME280;65998;46.256;7.534;2023-05-09T10:11:54;86874.81;;;17.72;50.65
43838;BME280;65998;46.256;7.534;2023-05-09T10:14:22;86870.63;;;17.73;50.63
43838;BME280;65998;46.256;7.534;2023-05-09T10:16:50;86868.53;;;17.74;50.63
43838;BME280;65998;46.256;7.534;2023-05-09T10:19:19;86862.28;;;17.73;50.64
43838;BME280;65998;46.256;7.534;2023-05-09T10:21:53;86855.97;;;17.75;50.76
43838;BME280;65998;46.256;7.534;2023-05-09T10:27:26;86848.38;;;17.73;50.58
43838;BME280;65998;46.256;7.534;2023-05-09T10:32:45;86847.63;;;17.75;50.60
43838;BME280;65998;46.256;7.534;2023-05-09T10:35:12;86847.78;;;17.71;50.60
43838;BME280;65998;46.256;7.534;2023-05-09T10:37:41;86841.56;;;17.70;50.76
43838;BME280;65998;46.256;7.534;2023-05-09T10:40:08;86840.13;;;17.71;50.79
43838;BME280;65998;46.256;7.534;2023-05-09T10:42:35;86835.31;;;17.70;50.79
43838;BME280;65998;46.256;7.534;2023-05-09T10:45:01;86840.88;;;17.70;50.73
43838;BME280;65998;46.256;7.534;2023-05-09T10:47:28;86833.28;;;17.68;50.90
43838;BME280;65998;46.256;7.534;2023-05-09T10:49:54;86830.44;;;17.70;50.85
43838;BME280;65998;46.256;7.534;2023-05-09T10:52:21;86831.88;;;17.69;50.72
43838;BME280;65998;46.256;7.534;2023-05-09T10:55:03;86813.00;;;17.72;50.64
43838;BME280;65998;46.256;7.534;2023-05-09T10:57:30;86813.81;;;17.68;50.73
43838;BME280;65998;46.256;7.534;2023-05-09T10:59:57;86812.41;;;17.69;50.68
43838;BME280;65998;46.256;7.534;2023-05-09T11:02:23;86806.97;;;17.65;50.75
43838;BME280;65998;46.256;7.534;2023-05-09T11:05:13;86806.03;;;17.73;50.75
43838;BME280;65998;46.256;7.534;2023-05-09T11:07:40;86802.69;;;17.68;50.72
43838;BME280;65998;46.256;7.534;2023-05-09T11:10:16;86800.53;;;17.71;50.74
43838;BME280;65998;46.256;7.534;2023-05-09T11:13:11;86798.38;;;17.73;50.61
43838;BME280;65998;46.256;7.534;2023-05-09T11:18:28;86793.63;;;17.70;50.67
43838;BME280;65998;46.256;7.534;2023-05-09T11:20:54;86790.19;;;17.69;50.77
43838;BME280;65998;46.256;7.534;2023-05-09T11:23:24;86784.47;;;17.73;50.67
43838;BME280;65998;46.256;7.534;2023-05-09T11:25:51;86785.97;;;17.70;50.73
43838;BME280;65998;46.256;7.534;2023-05-09T11:28:26;86785.16;;;17.74;50.77
43838;BME280;65998;46.256;7.534;2023-05-09T11:30:53;86774.91;;;17.68;50.69
43838;BME280;65998;46.256;7.534;2023-05-09T11:33:26;86767.78;;;17.73;50.69
43838;BME280;65998;46.256;7.534;2023-05-09T11:38:43;86767.13;;;17.73;50.83
43838;BME280;65998;46.256;7.534;2023-05-09T11:41:10;86765.84;;;17.70;50.73
43838;BME280;65998;46.256;7.534;2023-05-09T11:43:37;86758.78;;;17.73;50.78
43838;BME280;65998;46.256;7.534;2023-05-09T11:46:04;86751.19;;;17.71;50.73
43838;BME280;65998;46.256;7.534;2023-05-09T11:48:30;86753.31;;;17.71;50.85
43838;BME280;65998;46.256;7.534;2023-05-09T11:50:56;86751.97;;;17.70;50.84
43838;BME280;65998;46.256;7.534;2023-05-09T11:53:21;86747.66;;;17.73;50.70
43838;BME280;65998;46.256;7.534;2023-05-09T11:55:48;86740.09;;;17.71;50.71
43838;BME280;65998;46.256;7.534;2023-05-09T11:58:13;86749.19;;;17.70;50.77
43838;BME280;65998;46.256;7.534;2023-05-09T12:00:44;86733.69;;;17.75;50.63
43838;BME280;65998;46.256;7.534;2023-05-09T12:03:10;86731.00;;;17.73;50.84
43838;BME280;65998;46.256;7.534;2023-05-09T12:05:36;86739.34;;;17.73;50.76
43838;BME280;65998;46.256;7.534;2023-05-09T12:08:02;86734.44;;;17.73;50.82
43838;BME280;65998;46.256;7.534;2023-05-09T12:10:28;86729.56;;;17.74;50.79
43838;BME280;65998;46.256;7.534;2023-05-09T12:12:53;86727.47;;;17.74;50.79
43838;BME280;65998;46.256;7.534;2023-05-09T12:15:19;86721.91;;;17.74;50.81
43838;BME280;65998;46.256;7.534;2023-05-09T12:17:45;86719.13;;;17.74;50.84
43838;BME280;65998;46.256;7.534;2023-05-09T12:20:12;86720.47;;;17.75;50.91
43838;BME280;65998;46.256;7.534;2023-05-09T12:22:41;86712.06;;;17.77;50.69
43838;BME280;65998;46.256;7.534;2023-05-09T12:25:09;86718.28;;;17.78;50.78
43838;BME280;65998;46.256;7.534;2023-05-09T12:27:37;86718.97;;;17.78;50.80
43838;BME280;65998;46.256;7.534;2023-05-09T12:30:04;86713.47;;;17.76;50.86
43838;BME280;65998;46.256;7.534;2023-05-09T12:32:30;86711.53;;;17.73;50.83
43838;BME280;65998;46.256;7.534;2023-05-09T12:34:59;86717.69;;;17.75;50.87
43838;BME280;65998;46.256;7.534;2023-05-09T12:37:25;86712.81;;;17.76;50.81
43838;BME280;65998;46.256;7.534;2023-05-09T12:40:11;86706.41;;;17.79;50.66
43838;BME280;65998;46.256;7.534;2023-05-09T12:42:37;86709.28;;;17.77;50.95
43838;BME280;65998;46.256;7.534;2023-05-09T12:45:06;86708.53;;;17.79;50.83
43838;BME280;65998;46.256;7.534;2023-05-09T12:47:32;86706.56;;;17.75;50.92
43838;BME280;65998;46.256;7.534;2023-05-09T12:50:00;86710.03;;;17.76;50.92
43838;BME280;65998;46.256;7.534;2023-05-09T12:52:33;86705.75;;;17.79;50.89
43838;BME280;65998;46.256;7.534;2023-05-09T12:55:06;86699.50;;;17.78;50.86
43838;BME280;65998;46.256;7.534;2023-05-09T12:57:32;86697.47;;;17.77;50.91
43838;BME280;65998;46.256;7.534;2023-05-09T13:00:00;86702.28;;;17.78;50.80
43838;BME280;65998;46.256;7.534;2023-05-09T13:02:26;86695.38;;;17.77;50.90
43838;BME280;65998;46.256;7.534;2023-05-09T13:05:09;86688.31;;;17.80;50.78
43838;BME280;65998;46.256;7.534;2023-05-09T13:07:43;86691.75;;;17.81;50.99
43838;BME280;65998;46.256;7.534;2023-05-09T13:10:11;86691.84;;;17.79;50.86
43838;BME280;65998;46.256;7.534;2023-05-09T13:12:38;86692.53;;;17.79;50.96
43838;BME280;65998;46.256;7.534;2023-05-09T13:15:05;86700.19;;;17.79;50.94
43838;BME280;65998;46.256;7.534;2023-05-09T13:17:31;86698.91;;;17.76;50.91
43838;BME280;65998;46.256;7.534;2023-05-09T13:19:57;86699.50;;;17.78;50.96